sensor_id;sensor_type;location;lat;lon;timestamp;temperature;humidity
5520;DHT22;2782;52.362;10.012;2022-07-29T00:06:36;22.30;52.00
5520;DHT22;2782;52.362;10.012;2022-07-29T00:13:18;22.30;52.00
5520;DHT22;2782;52.362;10.012;2022-07-29T00:19:59;22.30;52.00
5520;DHT22;2782;52.362;10.012;2022-07-29T00:26:42;22.30;52.10
5520;DHT22;2782;52.362;10.012;2022-07-29T00:33:24;22.30;52.10
5520;DHT22;2782;52.362;10.012;2022-07-29T00:40:08;22.20;52.00
5520;DHT22;2782;52.362;10.012;2022-07-29T00:46:51;22.20;52.60
5520;DHT22;2782;52.362;10.012;2022-07-29T00:53:34;22.20;52.10
5520;DHT22;2782;52.362;10.012;2022-07-29T01:00:18;22.20;52.20
5520;DHT22;2782;52.362;10.012;2022-07-29T01:07:02;22.20;52.20
5520;DHT22;2782;52.362;10.012;2022-07-29T01:13:46;22.20;52.10
5520;DHT22;2782;52.362;10.012;2022-07-29T01:20:38;22.20;52.20
5520;DHT22;2782;52.362;10.012;2022-07-29T01:27:41;22.20;52.70
5520;DHT22;2782;52.362;10.012;2022-07-29T01:34:33;22.20;52.00
5520;DHT22;2782;52.362;10.012;2022-07-29T01:41:17;22.20;52.50
5520;DHT22;2782;52.362;10.012;2022-07-29T01:48:03;22.20;52.60
5520;DHT22;2782;52.362;10.012;2022-07-29T01:54:53;22.20;52.60
5520;DHT22;2782;52.362;10.012;2022-07-29T02:01:37;22.20;52.60
5520;DHT22;2782;52.362;10.012;2022-07-29T02:08:21;22.20;52.60
5520;DHT22;2782;52.362;10.012;2022-07-29T02:15:06;22.20;52.60
5520;DHT22;2782;52.362;10.012;2022-07-29T02:21:51;22.20;52.70
5520;DHT22;2782;52.362;10.012;2022-07-29T02:28:34;22.20;52.80
5520;DHT22;2782;52.362;10.012;2022-07-29T02:35:18;22.20;52.70
5520;DHT22;2782;52.362;10.012;2022-07-29T02:42:04;22.20;52.80
5520;DHT22;2782;52.362;10.012;2022-07-29T02:48:51;22.20;52.80
5520;DHT22;2782;52.362;10.012;2022-07-29T02:55:37;22.20;52.90
5520;DHT22;2782;52.362;10.012;2022-07-29T03:02:20;22.20;52.90
5520;DHT22;2782;52.362;10.012;2022-07-29T03:09:03;22.20;52.90
5520;DHT22;2782;52.362;10.012;2022-07-29T03:15:47;22.10;52.90
5520;DHT22;2782;52.362;10.012;2022-07-29T03:22:29;22.10;52.90
5520;DHT22;2782;52.362;10.012;2022-07-29T03:29:11;22.10;52.80
5520;DHT22;2782;52.362;10.012;2022-07-29T03:35:54;22.10;52.80
5520;DHT22;2782;52.362;10.012;2022-07-29T03:42:39;22.10;52.70
5520;DHT22;2782;52.362;10.012;2022-07-29T03:49:22;22.10;52.70
5520;DHT22;2782;52.362;10.012;2022-07-29T03:56:07;22.10;52.70
5520;DHT22;2782;52.362;10.012;2022-07-29T04:02:50;22.10;52.80
5520;DHT22;2782;52.362;10.012;2022-07-29T04:09:32;22.10;52.90
5520;DHT22;2782;52.362;10.012;2022-07-29T04:16:15;22.10;52.80
5520;DHT22;2782;52.362;10.012;2022-07-29T04:22:57;22.10;52.80
5520;DHT22;2782;52.362;10.012;2022-07-29T04:29:38;22.10;52.80
5520;DHT22;2782;52.362;10.012;2022-07-29T04:36:21;22.10;52.80
5520;DHT22;2782;52.362;10.012;2022-07-29T04:43:03;22.10;52.80
5520;DHT22;2782;52.362;10.012;2022-07-29T04:49:46;22.10;52.80
5520;DHT22;2782;52.362;10.012;2022-07-29T04:56:29;22.10;52.80
5520;DHT22;2782;52.362;10.012;2022-07-29T05:03:11;22.10;52.70
5520;DHT22;2782;52.362;10.012;2022-07-29T05:09:52;22.10;52.70
5520;DHT22;2782;52.362;10.012;2022-07-29T05:16:44;22.10;52.70
5520;DHT22;2782;52.362;10.012;2022-07-29T05:23:31;22.10;52.80
5520;DHT22;2782;52.362;10.012;2022-07-29T05:30:12;22.10;53.30
5520;DHT22;2782;52.362;10.012;2022-07-29T05:36:58;22.10;53.10
5520;DHT22;2782;52.362;10.012;2022-07-29T05:43:40;22.10;53.20
5520;DHT22;2782;52.362;10.012;2022-07-29T05:50:21;22.10;53.30
5520;DHT22;2782;52.362;10.012;2022-07-29T05:57:04;22.10;50.60
5520;DHT22;2782;52.362;10.012;2022-07-29T06:03:46;21.90;50.40
5520;DHT22;2782;52.362;10.012;2022-07-29T06:25:23;21.40;51.10
5520;DHT22;2782;52.362;10.012;2022-07-29T06:32:05;21.40;51.30
5520;DHT22;2782;52.362;10.012;2022-07-29T06:38:47;21.30;51.00
5520;DHT22;2782;52.362;10.012;2022-07-29T06:45:30;21.30;51.20
5520;DHT22;2782;52.362;10.012;2022-07-29T06:52:14;21.20;51.60
5520;DHT22;2782;52.362;10.012;2022-07-29T06:58:56;21.30;52.20
5520;DHT22;2782;52.362;10.012;2022-07-29T07:05:39;21.40;51.80
5520;DHT22;2782;52.362;10.012;2022-07-29T07:12:21;21.40;51.70
5520;DHT22;2782;52.362;10.012;2022-07-29T07:19:05;21.50;53.00
5520;DHT22;2782;52.362;10.012;2022-07-29T07:25:48;21.70;52.50
5520;DHT22;2782;52.362;10.012;2022-07-29T07:32:33;21.70;51.40
5520;DHT22;2782;52.362;10.012;2022-07-29T07:39:18;21.50;51.50
5520;DHT22;2782;52.362;10.012;2022-07-29T07:46:01;21.50;52.10
5520;DHT22;2782;52.362;10.012;2022-07-29T07:52:46;21.50;52.80
5520;DHT22;2782;52.362;10.012;2022-07-29T07:59:28;21.40;53.50
5520;DHT22;2782;52.362;10.012;2022-07-29T08:06:11;21.30;53.90
5520;DHT22;2782;52.362;10.012;2022-07-29T08:12:53;21.30;53.20
5520;DHT22;2782;52.362;10.012;2022-07-29T08:19:35;21.20;52.80
5520;DHT22;2782;52.362;10.012;2022-07-29T08:26:19;21.10;53.00
5520;DHT22;2782;52.362;10.012;2022-07-29T08:33:03;21.00;53.10
5520;DHT22;2782;52.362;10.012;2022-07-29T08:39:45;21.00;53.40
5520;DHT22;2782;52.362;10.012;2022-07-29T08:46:27;21.10;53.90
5520;DHT22;2782;52.362;10.012;2022-07-29T08:53:12;21.20;53.80
5520;DHT22;2782;52.362;10.012;2022-07-29T08:59:54;21.20;53.30
5520;DHT22;2782;52.362;10.012;2022-07-29T09:06:43;21.30;54.60
5520;DHT22;2782;52.362;10.012;2022-07-29T09:13:25;21.40;54.30
5520;DHT22;2782;52.362;10.012;2022-07-29T09:20:11;21.40;53.90
5520;DHT22;2782;52.362;10.012;2022-07-29T09:26:55;21.50;53.80
5520;DHT22;2782;52.362;10.012;2022-07-29T09:33:36;21.50;53.70
5520;DHT22;2782;52.362;10.012;2022-07-29T09:40:22;21.70;53.70
5520;DHT22;2782;52.362;10.012;2022-07-29T09:47:05;21.80;53.20
5520;DHT22;2782;52.362;10.012;2022-07-29T09:53:47;21.90;53.10
5520;DHT22;2782;52.362;10.012;2022-07-29T10:00:29;22.00;53.10
5520;DHT22;2782;52.362;10.012;2022-07-29T10:07:11;22.10;53.40
5520;DHT22;2782;52.362;10.012;2022-07-29T10:13:53;22.10;53.30
5520;DHT22;2782;52.362;10.012;2022-07-29T10:20:35;22.10;53.30
5520;DHT22;2782;52.362;10.012;2022-07-29T10:27:21;22.20;53.10
5520;DHT22;2782;52.362;10.012;2022-07-29T10:34:07;22.20;53.00
5520;DHT22;2782;52.362;10.012;2022-07-29T10:41:03;22.20;53.00
5520;DHT22;2782;52.362;10.012;2022-07-29T10:48:07;22.20;53.00
5520;DHT22;2782;52.362;10.012;2022-07-29T10:54:49;22.20;53.20
5520;DHT22;2782;52.362;10.012;2022-07-29T11:01:32;22.20;53.40
5520;DHT22;2782;52.362;10.012;2022-07-29T11:08:25;22.20;53.40
5520;DHT22;2782;52.362;10.012;2022-07-29T11:15:08;22.20;53.30
5520;DHT22;2782;52.362;10.012;2022-07-29T11:22:01;22.30;53.10
5520;DHT22;2782;52.362;10.012;2022-07-29T11:28:52;22.30;52.10
5520;DHT22;2782;52.362;10.012;2022-07-29T11:35:35;22.30;51.70
5520;DHT22;2782;52.362;10.012;2022-07-29T11:42:39;22.30;51.30
5520;DHT22;2782;52.362;10.012;2022-07-29T11:49:23;22.40;50.70
5520;DHT22;2782;52.362;10.012;2022-07-29T11:56:08;22.40;50.50
5520;DHT22;2782;52.362;10.012;2022-07-29T12:02:54;22.40;50.70
5520;DHT22;2782;52.362;10.012;2022-07-29T12:09:37;22.40;50.90
5520;DHT22;2782;52.362;10.012;2022-07-29T12:16:18;22.40;51.00
5520;DHT22;2782;52.362;10.012;2022-07-29T12:23:05;22.50;50.90
5520;DHT22;2782;52.362;10.012;2022-07-29T12:29:57;22.50;51.30
5520;DHT22;2782;52.362;10.012;2022-07-29T12:36:41;22.50;51.30
5520;DHT22;2782;52.362;10.012;2022-07-29T12:43:26;22.50;51.40
5520;DHT22;2782;52.362;10.012;2022-07-29T12:50:10;22.50;52.50
5520;DHT22;2782;52.362;10.012;2022-07-29T12:56:58;22.60;52.10
5520;DHT22;2782;52.362;10.012;2022-07-29T13:03:46;22.50;52.80
5520;DHT22;2782;52.362;10.012;2022-07-29T13:10:35;22.60;52.50
5520;DHT22;2782;52.362;10.012;2022-07-29T13:17:18;22.60;52.50
5520;DHT22;2782;52.362;10.012;2022-07-29T13:24:01;22.60;52.40
5520;DHT22;2782;52.362;10.012;2022-07-29T13:30:44;22.60;51.80
5520;DHT22;2782;52.362;10.012;2022-07-29T13:37:26;22.70;51.20
5520;DHT22;2782;52.362;10.012;2022-07-29T13:44:09;22.70;50.40
5520;DHT22;2782;52.362;10.012;2022-07-29T13:50:53;22.70;49.40
5520;DHT22;2782;52.362;10.012;2022-07-29T13:57:37;22.80;50.00
5520;DHT22;2782;52.362;10.012;2022-07-29T14:04:19;22.80;50.10
5520;DHT22;2782;52.362;10.012;2022-07-29T14:11:03;22.80;49.50
5520;DHT22;2782;52.362;10.012;2022-07-29T14:17:45;22.80;49.80
5520;DHT22;2782;52.362;10.012;2022-07-29T14:24:27;22.80;48.80
5520;DHT22;2782;52.362;10.012;2022-07-29T14:31:13;22.90;48.60
5520;DHT22;2782;52.362;10.012;2022-07-29T14:37:54;22.90;48.90
5520;DHT22;2782;52.362;10.012;2022-07-29T14:44:37;22.90;48.20
5520;DHT22;2782;52.362;10.012;2022-07-29T14:51:23;22.90;47.30
5520;DHT22;2782;52.362;10.012;2022-07-29T14:58:05;22.90;48.70
5520;DHT22;2782;52.362;10.012;2022-07-29T15:04:46;22.90;46.70
5520;DHT22;2782;52.362;10.012;2022-07-29T15:11:29;22.90;46.70
5520;DHT22;2782;52.362;10.012;2022-07-29T15:18:11;23.00;46.20
5520;DHT22;2782;52.362;10.012;2022-07-29T15:24:53;23.00;46.30
5520;DHT22;2782;52.362;10.012;2022-07-29T15:31:40;23.00;46.50
5520;DHT22;2782;52.362;10.012;2022-07-29T15:38:22;23.00;46.60
5520;DHT22;2782;52.362;10.012;2022-07-29T15:45:04;23.00;46.60
5520;DHT22;2782;52.362;10.012;2022-07-29T15:51:48;23.00;45.70
5520;DHT22;2782;52.362;10.012;2022-07-29T15:58:29;23.00;46.50
5520;DHT22;2782;52.362;10.012;2022-07-29T16:05:14;23.00;47.00
5520;DHT22;2782;52.362;10.012;2022-07-29T16:11:57;23.00;47.80
5520;DHT22;2782;52.362;10.012;2022-07-29T16:18:41;23.00;46.60
5520;DHT22;2782;52.362;10.012;2022-07-29T16:25:24;23.00;47.00
5520;DHT22;2782;52.362;10.012;2022-07-29T16:32:07;23.00;46.50
5520;DHT22;2782;52.362;10.012;2022-07-29T16:38:48;23.00;47.30
5520;DHT22;2782;52.362;10.012;2022-07-29T16:45:30;23.10;49.00
5520;DHT22;2782;52.362;10.012;2022-07-29T16:52:13;23.10;48.50
5520;DHT22;2782;52.362;10.012;2022-07-29T16:58:56;23.10;48.40
5520;DHT22;2782;52.362;10.012;2022-07-29T17:05:38;23.10;48.30
5520;DHT22;2782;52.362;10.012;2022-07-29T17:12:21;23.10;48.30
5520;DHT22;2782;52.362;10.012;2022-07-29T17:19:02;23.10;48.10
5520;DHT22;2782;52.362;10.012;2022-07-29T17:25:44;23.10;48.20
5520;DHT22;2782;52.362;10.012;2022-07-29T17:32:30;23.10;48.10
5520;DHT22;2782;52.362;10.012;2022-07-29T17:39:15;23.10;48.20
5520;DHT22;2782;52.362;10.012;2022-07-29T17:45:57;23.10;48.40
5520;DHT22;2782;52.362;10.012;2022-07-29T17:52:40;23.00;48.40
5520;DHT22;2782;52.362;10.012;2022-07-29T17:59:22;23.00;48.30
5520;DHT22;2782;52.362;10.012;2022-07-29T18:06:04;23.00;47.90
5520;DHT22;2782;52.362;10.012;2022-07-29T18:12:47;23.00;48.30
5520;DHT22;2782;52.362;10.012;2022-07-29T18:19:31;23.00;48.00
5520;DHT22;2782;52.362;10.012;2022-07-29T18:26:13;23.00;48.10
5520;DHT22;2782;52.362;10.012;2022-07-29T18:32:56;23.00;48.70
5520;DHT22;2782;52.362;10.012;2022-07-29T18:39:38;23.00;49.20
5520;DHT22;2782;52.362;10.012;2022-07-29T18:46:22;23.00;49.30
5520;DHT22;2782;52.362;10.012;2022-07-29T18:53:08;23.00;49.40
5520;DHT22;2782;52.362;10.012;2022-07-29T18:59:50;22.90;49.70
5520;DHT22;2782;52.362;10.012;2022-07-29T19:06:33;22.90;49.70
5520;DHT22;2782;52.362;10.012;2022-07-29T19:13:16;22.90;50.00
5520;DHT22;2782;52.362;10.012;2022-07-29T19:19:58;22.90;50.10
5520;DHT22;2782;52.362;10.012;2022-07-29T19:26:39;22.90;51.30
5520;DHT22;2782;52.362;10.012;2022-07-29T19:33:27;22.90;50.80
5520;DHT22;2782;52.362;10.012;2022-07-29T19:40:12;22.80;50.50
5520;DHT22;2782;52.362;10.012;2022-07-29T19:46:53;22.80;50.50
5520;DHT22;2782;52.362;10.012;2022-07-29T19:53:36;22.80;50.20
5520;DHT22;2782;52.362;10.012;2022-07-29T20:00:19;22.80;50.00
5520;DHT22;2782;52.362;10.012;2022-07-29T20:07:04;22.80;49.80
5520;DHT22;2782;52.362;10.012;2022-07-29T20:13:48;22.80;50.00
5520;DHT22;2782;52.362;10.012;2022-07-29T20:20:30;22.80;49.90
5520;DHT22;2782;52.362;10.012;2022-07-29T20:27:12;22.80;49.60
5520;DHT22;2782;52.362;10.012;2022-07-29T20:33:57;22.80;50.00
5520;DHT22;2782;52.362;10.012;2022-07-29T20:40:39;22.80;50.10
5520;DHT22;2782;52.362;10.012;2022-07-29T20:47:22;22.80;50.30
5520;DHT22;2782;52.362;10.012;2022-07-29T20:54:06;22.80;50.50
5520;DHT22;2782;52.362;10.012;2022-07-29T21:00:49;22.80;51.40
5520;DHT22;2782;52.362;10.012;2022-07-29T21:07:31;22.80;51.20
5520;DHT22;2782;52.362;10.012;2022-07-29T21:14:15;22.80;51.50
5520;DHT22;2782;52.362;10.012;2022-07-29T21:21:09;22.80;51.80
5520;DHT22;2782;52.362;10.012;2022-07-29T21:27:51;22.80;52.10
5520;DHT22;2782;52.362;10.012;2022-07-29T21:34:52;22.80;52.50
5520;DHT22;2782;52.362;10.012;2022-07-29T21:41:35;22.80;52.90
5520;DHT22;2782;52.362;10.012;2022-07-29T21:48:19;22.80;53.10
5520;DHT22;2782;52.362;10.012;2022-07-29T21:55:03;22.80;53.40
5520;DHT22;2782;52.362;10.012;2022-07-29T22:01:45;22.80;53.70
5520;DHT22;2782;52.362;10.012;2022-07-29T22:08:29;22.80;54.10
5520;DHT22;2782;52.362;10.012;2022-07-29T22:15:12;22.80;54.40
5520;DHT22;2782;52.362;10.012;2022-07-29T22:21:55;22.80;54.70
5520;DHT22;2782;52.362;10.012;2022-07-29T22:28:38;22.80;55.10
5520;DHT22;2782;52.362;10.012;2022-07-29T22:35:22;22.80;55.20
5520;DHT22;2782;52.362;10.012;2022-07-29T22:42:04;22.80;55.50
5520;DHT22;2782;52.362;10.012;2022-07-29T22:48:46;22.70;55.20
5520;DHT22;2782;52.362;10.012;2022-07-29T22:55:30;22.70;55.50
5520;DHT22;2782;52.362;10.012;2022-07-29T23:02:13;22.70;55.90
5520;DHT22;2782;52.362;10.012;2022-07-29T23:08:56;22.70;56.40
5520;DHT22;2782;52.362;10.012;2022-07-29T23:15:41;22.70;56.60
5520;DHT22;2782;52.362;10.012;2022-07-29T23:22:24;22.70;56.90
5520;DHT22;2782;52.362;10.012;2022-07-29T23:29:06;22.70;57.20
5520;DHT22;2782;52.362;10.012;2022-07-29T23:35:51;22.70;57.40
5520;DHT22;2782;52.362;10.012;2022-07-29T23:42:35;22.70;57.50
5520;DHT22;2782;52.362;10.012;2022-07-29T23:49:17;22.70;57.60
5520;DHT22;2782;52.362;10.012;2022-07-29T23:56:02;22.70;57.80
